createdAt,value
2022-08-19T00:00:19.393Z,59.80
2022-08-19T00:05:24.546Z,59.90
2022-08-19T00:10:29.135Z,60.00
2022-08-19T00:15:32.186Z,60.00
2022-08-19T00:20:35.278Z,60.00
2022-08-19T00:25:40.304Z,59.80
2022-08-19T00:30:43.548Z,59.80
2022-08-19T00:35:46.744Z,60.00
2022-08-19T00:41:00.928Z,59.80
2022-08-19T00:46:05.769Z,59.90
2022-08-19T00:51:09.454Z,59.90
2022-08-19T00:56:14.039Z,59.70
2022-08-19T01:01:17.424Z,59.60
2022-08-19T01:06:20.883Z,59.50
2022-08-19T01:11:25.331Z,59.60
2022-08-19T01:16:30.409Z,59.70
2022-08-19T01:21:37.660Z,59.40
2022-08-19T01:26:44.641Z,59.50
2022-08-19T01:31:47.687Z,59.50
2022-08-19T01:36:51.092Z,59.50
2022-08-19T01:41:56.088Z,59.50
2022-08-19T01:46:59.522Z,59.70
2022-08-19T01:52:03.522Z,59.50
2022-08-19T01:57:13.256Z,59.50
2022-08-19T02:02:16.322Z,59.50
2022-08-19T02:07:22.464Z,59.50
2022-08-19T02:12:26.850Z,59.50
2022-08-19T02:17:30.555Z,59.50
2022-08-19T02:22:33.946Z,59.50
2022-08-19T02:27:38.563Z,59.60
2022-08-19T02:32:44.806Z,59.70
2022-08-19T02:38:05.714Z,59.70
2022-08-19T02:43:11.109Z,59.70
2022-08-19T02:48:21.413Z,59.90
2022-08-19T02:53:27.170Z,59.90
2022-08-19T02:58:31.587Z,59.90
2022-08-19T03:03:35.171Z,59.90
2022-08-19T03:08:39.458Z,59.80
2022-08-19T03:13:44.777Z,59.80
2022-08-19T03:18:48.276Z,59.80
2022-08-19T03:23:51.331Z,59.80
2022-08-19T03:28:58.258Z,59.70
2022-08-19T03:34:01.841Z,59.80
2022-08-19T03:39:06.858Z,59.70
2022-08-19T03:44:16.925Z,59.70
2022-08-19T03:49:27.138Z,59.70
2022-08-19T03:54:32.197Z,59.70
2022-08-19T03:59:39.244Z,59.70
2022-08-19T04:04:44.621Z,59.70
2022-08-19T04:09:47.820Z,59.70
2022-08-19T04:14:52.353Z,59.70
2022-08-19T04:19:55.480Z,59.60
2022-08-19T04:24:58.559Z,59.60
2022-08-19T04:30:03.118Z,59.70
2022-08-19T04:35:17.597Z,59.70
2022-08-19T04:40:35.773Z,59.70
2022-08-19T04:45:43.950Z,59.70
2022-08-19T04:50:47.828Z,59.80
2022-08-19T04:55:50.898Z,59.80
2022-08-19T05:00:55.830Z,59.90
2022-08-19T05:05:59.407Z,60.00
2022-08-19T05:11:02.949Z,59.90
2022-08-19T05:16:08.459Z,60.20
2022-08-19T05:21:31.307Z,60.00
2022-08-19T05:26:34.375Z,60.80
2022-08-19T05:31:41.905Z,61.50
2022-08-19T05:36:46.936Z,61.90
2022-08-19T05:41:53.646Z,62.20
2022-08-19T05:46:58.710Z,62.30
2022-08-19T05:52:05.835Z,62.40
2022-08-19T05:57:09.498Z,62.90
2022-08-19T06:02:17.277Z,62.90
2022-08-19T06:07:20.438Z,62.90
2022-08-19T06:12:27.415Z,62.90
2022-08-19T06:17:32.645Z,62.90
2022-08-19T06:22:40.609Z,63.10
2022-08-19T06:28:11.460Z,63.00
2022-08-19T06:33:08.586Z,62.80
2022-08-19T06:38:11.967Z,62.50
2022-08-19T06:43:16.866Z,62.30
2022-08-19T06:48:23.096Z,62.00
2022-08-19T06:53:30.476Z,61.80
2022-08-19T06:58:33.911Z,62.10
2022-08-19T07:03:39.984Z,62.50
2022-08-19T07:08:43.923Z,62.60
2022-08-19T07:13:49.612Z,62.90
2022-08-19T07:18:58.616Z,63.00
2022-08-19T07:24:05.349Z,62.90
2022-08-19T07:29:10.372Z,62.90
2022-08-19T07:34:15.652Z,62.80
2022-08-19T07:39:21.892Z,62.60
2022-08-19T07:44:25.283Z,62.20
2022-08-19T07:49:29.990Z,63.10
2022-08-19T07:54:36.691Z,63.40
2022-08-19T07:59:39.735Z,63.80
2022-08-19T08:05:01.661Z,63.60
2022-08-19T08:10:06.107Z,63.30
2022-08-19T08:15:19.409Z,63.20
2022-08-19T08:20:23.972Z,62.90
2022-08-19T08:25:27.494Z,63.60
2022-08-19T08:30:37.111Z,62.60
2022-08-19T08:35:43.636Z,63.40
2022-08-19T08:40:50.835Z,63.50
2022-08-19T08:46:01.177Z,62.90
2022-08-19T08:51:09.309Z,62.60
2022-08-19T08:56:14.102Z,63.40
2022-08-19T09:01:20.165Z,63.70
2022-08-19T09:06:34.050Z,63.90
2022-08-19T09:11:49.649Z,64.30
2022-08-19T09:16:53.677Z,63.90
2022-08-19T09:21:58.911Z,63.30
2022-08-19T09:27:05.531Z,63.20
2022-08-19T09:32:26.167Z,63.40
2022-08-19T09:37:31.787Z,63.40
2022-08-19T09:42:36.495Z,63.00
2022-08-19T09:47:40.617Z,63.80
2022-08-19T09:52:53.932Z,64.30
2022-08-19T09:58:01.692Z,65.40
2022-08-19T10:03:04.701Z,64.50
2022-08-19T10:08:13.602Z,64.60
2022-08-19T10:13:19.674Z,64.60
2022-08-19T10:18:24.247Z,64.50
2022-08-19T10:23:30.610Z,64.60
2022-08-19T10:28:38.949Z,64.70
2022-08-19T10:33:53.430Z,64.30
2022-08-19T10:39:02.256Z,64.40
2022-08-19T10:44:08.325Z,64.40
2022-08-19T10:49:13.194Z,64.60
2022-08-19T10:54:31.213Z,64.70
2022-08-19T10:59:36.941Z,64.50
2022-08-19T11:04:41.815Z,64.70
2022-08-19T11:09:47.521Z,64.60
2022-08-19T11:14:50.897Z,64.90
2022-08-19T11:19:53.949Z,63.80
2022-08-19T11:24:58.440Z,63.60
2022-08-19T11:30:01.911Z,63.30
2022-08-19T11:35:05.085Z,62.90
2022-08-19T11:40:11.220Z,62.70
2022-08-19T11:45:14.986Z,62.70
2022-08-19T11:50:18.926Z,62.90
2022-08-19T11:55:23.919Z,62.70
2022-08-19T12:00:27.531Z,63.00
2022-08-19T12:05:30.822Z,62.80
2022-08-19T12:10:39.578Z,62.70
2022-08-19T12:15:43.023Z,62.80
2022-08-19T12:20:47.086Z,62.50
2022-08-19T12:25:52.781Z,62.40
2022-08-19T12:30:55.916Z,63.50
2022-08-19T12:36:04.000Z,62.60
2022-08-19T12:41:11.582Z,62.60
2022-08-19T12:46:15.182Z,62.50
2022-08-19T12:51:21.426Z,62.30
2022-08-19T12:56:25.920Z,62.40
2022-08-19T13:01:33.639Z,62.10
2022-08-19T13:06:37.098Z,62.30
2022-08-19T13:11:41.643Z,62.20
2022-08-19T13:16:44.708Z,62.10
2022-08-19T13:21:51.080Z,62.00
2022-08-19T13:27:05.084Z,62.40
2022-08-19T13:32:25.449Z,62.50
2022-08-19T13:42:57.492Z,62.70
2022-08-19T13:48:00.750Z,62.50
2022-08-19T13:53:05.074Z,62.50
2022-08-19T13:58:10.005Z,62.60
2022-08-19T14:03:13.185Z,62.50
2022-08-19T14:08:16.275Z,63.30
2022-08-19T14:13:22.771Z,63.00
2022-08-19T14:18:26.065Z,63.30
2022-08-19T14:23:31.805Z,63.10
2022-08-19T14:28:36.662Z,63.20
2022-08-19T14:33:39.755Z,63.20
2022-08-19T14:38:42.968Z,63.00
2022-08-19T14:43:49.184Z,62.60
2022-08-19T14:48:52.653Z,62.10
2022-08-19T14:53:56.688Z,62.40
2022-08-19T14:59:02.066Z,62.50
2022-08-19T15:04:05.558Z,62.60
2022-08-19T15:09:08.619Z,63.10
2022-08-19T15:14:14.785Z,62.40
2022-08-19T15:19:18.620Z,62.20
2022-08-19T15:24:21.735Z,62.50
2022-08-19T15:29:28.937Z,62.70
2022-08-19T15:34:32.422Z,62.90
2022-08-19T15:39:35.540Z,63.30
2022-08-19T15:44:39.986Z,63.60
2022-08-19T15:49:43.475Z,63.80
2022-08-19T15:54:46.539Z,63.70
2022-08-19T16:00:08.564Z,63.40
2022-08-19T16:05:35.927Z,63.50
2022-08-19T16:10:39.962Z,63.30
2022-08-19T16:15:44.978Z,63.30
2022-08-19T16:20:48.531Z,63.00
2022-08-19T16:25:51.670Z,63.00
2022-08-19T16:30:56.026Z,63.30
2022-08-19T16:36:06.905Z,62.70
2022-08-19T16:41:11.836Z,63.10
2022-08-19T16:46:18.615Z,63.40
2022-08-19T16:51:22.868Z,63.10
2022-08-19T16:56:27.746Z,63.50
2022-08-19T17:01:32.551Z,63.60
2022-08-19T17:06:37.523Z,63.40
2022-08-19T17:11:40.636Z,63.40
2022-08-19T17:16:45.154Z,63.00
2022-08-19T17:21:48.289Z,63.30
2022-08-19T17:26:51.614Z,63.10
2022-08-19T17:31:56.011Z,63.30
2022-08-19T17:36:59.327Z,63.10
2022-08-19T17:42:03.032Z,63.10
2022-08-19T17:47:07.898Z,63.00
2022-08-19T17:52:11.111Z,63.80
2022-08-19T17:57:14.262Z,63.20
2022-08-19T18:02:20.653Z,63.40
2022-08-19T18:07:25.148Z,63.50
2022-08-19T18:12:28.191Z,63.50
2022-08-19T18:17:33.323Z,63.00
2022-08-19T18:22:39.062Z,62.90
2022-08-19T18:27:43.374Z,63.00
2022-08-19T18:32:49.681Z,62.80
2022-08-19T18:37:52.852Z,62.70
2022-08-19T18:43:14.131Z,62.60
2022-08-19T18:48:36.137Z,62.60
2022-08-19T18:53:42.040Z,62.30
2022-08-19T18:58:45.585Z,62.20
2022-08-19T19:03:52.895Z,62.30
2022-08-19T19:08:56.810Z,62.20
2022-08-19T19:14:02.003Z,62.00
2022-08-19T19:19:07.621Z,62.10
2022-08-19T19:24:11.712Z,62.00
2022-08-19T19:29:17.369Z,61.90
2022-08-19T19:34:29.953Z,61.60
2022-08-19T19:39:45.950Z,61.50
2022-08-19T19:44:51.562Z,61.70
2022-08-19T19:50:15.200Z,61.50
2022-08-19T19:55:19.193Z,61.60
2022-08-19T20:00:22.863Z,61.50
2022-08-19T20:05:27.686Z,61.50
2022-08-19T20:10:32.315Z,61.40
2022-08-19T20:15:40.352Z,61.30
2022-08-19T20:20:50.152Z,61.10
2022-08-19T20:25:54.367Z,61.00
2022-08-19T20:30:57.460Z,61.00
2022-08-19T20:36:03.203Z,60.90
2022-08-19T20:41:06.902Z,60.90
2022-08-19T20:46:09.957Z,60.70
2022-08-19T20:51:14.997Z,60.70
2022-08-19T20:56:18.148Z,60.80
2022-08-19T21:01:23.275Z,60.60
2022-08-19T21:06:27.863Z,60.60
2022-08-19T21:11:32.889Z,60.50
2022-08-19T21:16:36.016Z,60.40
2022-08-19T21:21:40.459Z,60.40
2022-08-19T21:26:48.208Z,60.40
2022-08-19T21:31:53.924Z,60.50
2022-08-19T21:36:58.346Z,60.50
2022-08-19T21:42:01.358Z,60.40
2022-08-19T21:47:05.480Z,60.50
2022-08-19T21:52:13.926Z,60.40
2022-08-19T21:57:16.962Z,60.40
2022-08-19T22:02:21.496Z,60.40
2022-08-19T22:07:26.241Z,60.30
2022-08-19T22:12:31.406Z,61.00
2022-08-19T22:17:34.479Z,60.20
2022-08-19T22:22:40.693Z,60.20
2022-08-19T22:27:43.968Z,60.20
2022-08-19T22:32:48.476Z,60.10
2022-08-19T22:38:00.474Z,60.00
2022-08-19T22:43:07.697Z,60.00
2022-08-19T22:48:12.963Z,60.00
2022-08-19T22:53:17.375Z,59.90
2022-08-19T22:58:28.133Z,59.90
2022-08-19T23:03:31.492Z,59.90
2022-08-19T23:08:37.475Z,59.80
2022-08-19T23:13:42.232Z,59.90
2022-08-19T23:18:45.628Z,59.90
2022-08-19T23:23:50.072Z,60.00
2022-08-19T23:29:10.623Z,59.90
2022-08-19T23:34:13.882Z,59.90
2022-08-19T23:39:19.192Z,60.00
2022-08-19T23:44:22.335Z,59.90
2022-08-19T23:49:26.535Z,59.80
2022-08-19T23:54:43.177Z,59.90
2022-08-19T23:59:46.975Z,59.80
